Time;durP1;ratioP1;P1;durP2;ratioP2;P2;SDS_P1;SDS_P2;PMS_P1;PMS_P2;Temp;Humidity;BMP_temperature;BMP_pressure;BME280_temperature;BME280_humidity;BME280_pressure;Samples;Min_cycle;Max_cycle;Signal;HPM_P1;HPM_P2
2023/06/02 00:01:19;;;;;;;8.10;2.22;;;16.10;52.80;;;;;;5034166;28;20087;-68
2023/06/02 00:03:45;;;;;;;11.48;2.60;;;16.10;52.90;;;;;;5034267;28;20462;-68
2023/06/02 00:06:14;;;;;;;8.30;2.40;;;16.00;52.80;;;;;;5034710;28;20029;-68
2023/06/02 00:08:40;;;;;;;8.05;2.78;;;16.10;52.80;;;;;;5033190;28;20033;-68
2023/06/02 00:11:08;;;;;;;7.85;2.35;;;16.00;52.80;;;;;;5032013;28;20037;-68
2023/06/02 00:13:34;;;;;;;8.60;2.55;;;16.00;52.90;;;;;;5033454;28;20026;-68
2023/06/02 00:16:00;;;;;;;14.48;2.58;;;16.00;53.00;;;;;;5032491;28;20327;-68
2023/06/02 00:18:27;;;;;;;12.23;2.60;;;16.00;53.10;;;;;;5032438;28;20464;-68
2023/06/02 00:20:53;;;;;;;7.88;2.38;;;16.00;53.20;;;;;;5032226;28;20117;-68
2023/06/02 00:23:21;;;;;;;8.68;2.35;;;16.00;53.10;;;;;;5027669;28;20434;-68
2023/06/02 00:25:47;;;;;;;13.27;2.50;;;16.00;53.10;;;;;;5022570;28;20455;-68
2023/06/02 00:28:13;;;;;;;9.88;2.53;;;15.90;53.00;;;;;;5031480;28;20033;-68
2023/06/02 00:30:39;;;;;;;8.35;2.00;;;15.90;53.00;;;;;;5032101;28;20079;-68
2023/06/02 00:33:05;;;;;;;10.10;2.50;;;16.00;53.10;;;;;;5030374;28;20037;-68
2023/06/02 00:35:30;;;;;;;8.70;2.33;;;16.00;53.10;;;;;;5032703;28;20049;-68
2023/06/02 00:37:57;;;;;;;9.02;2.60;;;16.00;53.10;;;;;;5033507;28;20021;-68
2023/06/02 00:40:23;;;;;;;10.38;2.63;;;16.00;53.20;;;;;;5030154;28;20028;-68
2023/06/02 00:42:49;;;;;;;9.25;2.60;;;16.00;53.20;;;;;;5030039;28;20052;-68
2023/06/02 00:45:16;;;;;;;5.80;2.20;;;15.90;53.20;;;;;;5033596;28;20470;-68
2023/06/02 00:47:42;;;;;;;9.10;2.53;;;16.00;53.30;;;;;;5031621;28;20288;-68
2023/06/02 00:50:08;;;;;;;8.68;2.85;;;15.90;53.30;;;;;;5031359;28;20104;-68
2023/06/02 00:52:34;;;;;;;10.07;2.40;;;16.00;53.40;;;;;;5018080;28;20025;-68
2023/06/02 00:55:04;;;;;;;7.90;2.22;;;15.90;53.20;;;;;;5032626;28;20109;-68
2023/06/02 00:57:33;;;;;;;11.73;2.45;;;15.90;53.20;;;;;;5032892;28;20390;-68
2023/06/02 01:00:00;;;;;;;10.32;3.28;;;15.90;53.10;;;;;;5032313;28;20418;-68
2023/06/02 01:02:26;;;;;;;9.82;2.42;;;15.90;53.10;;;;;;5029482;28;20072;-67
2023/06/02 01:04:57;;;;;;;10.98;2.72;;;15.80;53.10;;;;;;5031823;28;20021;-68
2023/06/02 01:07:25;;;;;;;12.88;2.55;;;15.80;53.10;;;;;;5030164;28;20068;-68
2023/06/02 01:09:56;;;;;;;9.75;3.08;;;15.80;53.10;;;;;;5034993;28;20104;-68
2023/06/02 01:12:23;;;;;;;11.90;2.80;;;15.80;53.10;;;;;;5029908;28;20159;-68
2023/06/02 01:14:50;;;;;;;8.07;2.92;;;15.80;53.10;;;;;;5010386;28;20032;-68
2023/06/02 01:17:17;;;;;;;11.15;3.20;;;15.80;53.10;;;;;;5032020;28;20420;-68
2023/06/02 01:19:47;;;;;;;6.97;2.10;;;15.80;53.10;;;;;;5030165;28;20347;-68
2023/06/02 01:22:19;;;;;;;11.43;3.03;;;15.70;53.00;;;;;;5029832;28;20112;-68
2023/06/02 01:24:47;;;;;;;8.25;2.78;;;15.70;53.00;;;;;;5028901;28;20029;-68
2023/06/02 01:27:13;;;;;;;10.23;2.85;;;15.70;53.00;;;;;;5015423;28;20024;-68
2023/06/02 01:29:40;;;;;;;8.20;2.70;;;15.70;53.00;;;;;;5032863;28;20017;-68
2023/06/02 01:32:09;;;;;;;8.27;2.58;;;15.70;53.00;;;;;;5034013;28;20120;-68
2023/06/02 01:34:53;;;;;;;7.70;2.45;;;15.60;52.90;;;;;;5030862;28;20040;-68
2023/06/02 01:37:21;;;;;;;9.93;2.88;;;15.60;52.90;;;;;;5033206;28;20029;-68
2023/06/02 01:39:49;;;;;;;8.70;2.63;;;15.60;52.80;;;;;;5031343;28;20017;-68
2023/06/02 01:42:15;;;;;;;9.38;2.95;;;15.60;52.70;;;;;;5028776;28;20363;-68
2023/06/02 01:44:43;;;;;;;9.20;2.90;;;15.60;52.70;;;;;;5028580;28;20017;-68
2023/06/02 01:47:09;;;;;;;8.80;2.35;;;15.60;52.80;;;;;;5003645;28;20033;-68
2023/06/02 01:49:35;;;;;;;7.47;2.38;;;15.60;52.80;;;;;;5030074;28;20419;-68
2023/06/02 01:52:02;;;;;;;9.82;2.45;;;15.60;52.90;;;;;;5028988;28;20053;-68
2023/06/02 01:54:28;;;;;;;8.82;2.67;;;15.50;52.80;;;;;;5026595;28;20034;-68
2023/06/02 01:56:54;;;;;;;9.93;3.00;;;15.50;52.90;;;;;;5030048;28;20036;-68
2023/06/02 01:59:20;;;;;;;13.15;2.92;;;15.50;52.90;;;;;;5016269;28;20443;-68
2023/06/02 02:01:49;;;;;;;8.43;2.60;;;15.50;52.90;;;;;;5030281;28;20459;-68
2023/06/02 02:04:15;;;;;;;7.63;2.00;;;15.50;52.90;;;;;;5030866;28;21676;-68
2023/06/02 02:06:45;;;;;;;11.00;2.67;;;15.50;52.90;;;;;;5029789;28;20022;-68
2023/06/02 02:09:11;;;;;;;13.10;3.17;;;15.50;53.00;;;;;;5028604;28;20366;-68
2023/06/02 02:11:37;;;;;;;8.07;2.72;;;15.50;53.00;;;;;;5029643;28;20042;-68
2023/06/02 02:14:04;;;;;;;9.70;2.58;;;15.50;53.10;;;;;;5030337;28;20044;-68
2023/06/02 02:16:31;;;;;;;9.70;2.53;;;15.40;53.00;;;;;;5031551;28;20053;-68
2023/06/02 02:18:58;;;;;;;7.95;2.45;;;15.40;53.10;;;;;;5029845;28;20057;-68
2023/06/02 02:21:25;;;;;;;7.07;2.33;;;15.30;53.10;;;;;;5012904;28;20026;-68
2023/06/02 02:23:53;;;;;;;11.73;2.88;;;15.30;53.20;;;;;;5027574;28;20394;-68
2023/06/02 02:26:19;;;;;;;8.68;2.85;;;15.30;53.20;;;;;;5028285;28;20022;-68
2023/06/02 02:28:45;;;;;;;6.20;2.10;;;15.30;53.30;;;;;;5031516;28;20451;-68
2023/06/02 02:31:11;;;;;;;9.63;2.33;;;15.30;53.30;;;;;;5032920;28;20035;-71
2023/06/02 02:33:38;;;;;;;8.68;2.47;;;15.30;53.40;;;;;;5031951;28;20108;-68
2023/06/02 02:36:04;;;;;;;6.45;2.08;;;15.30;53.50;;;;;;5015530;28;20427;-68
2023/06/02 02:38:30;;;;;;;9.00;2.70;;;15.30;53.50;;;;;;5024347;28;20033;-68
2023/06/02 02:40:56;;;;;;;8.80;2.28;;;15.30;53.50;;;;;;5033845;28;20108;-68
2023/06/02 02:43:22;;;;;;;7.55;2.30;;;15.30;53.50;;;;;;5030503;28;20027;-68
2023/06/02 02:45:49;;;;;;;9.18;2.60;;;15.30;53.60;;;;;;5031518;28;20026;-68
2023/06/02 02:48:16;;;;;;;7.93;2.20;;;15.20;53.50;;;;;;5033881;28;20082;-68
2023/06/02 02:50:42;;;;;;;8.18;2.28;;;15.20;53.50;;;;;;5032752;28;20029;-68
2023/06/02 02:53:07;;;;;;;7.30;2.40;;;15.20;53.60;;;;;;5031495;28;20026;-68
2023/06/02 02:55:34;;;;;;;8.93;2.33;;;15.20;53.60;;;;;;5024419;28;20097;-68
2023/06/02 02:58:00;;;;;;;6.63;1.77;;;15.20;53.70;;;;;;5033597;28;20037;-68
2023/06/02 03:00:27;;;;;;;6.35;1.90;;;15.20;53.80;;;;;;5033921;28;20025;-68
2023/06/02 03:02:56;;;;;;;8.45;2.40;;;15.20;53.80;;;;;;5032330;28;20033;-68
2023/06/02 03:05:22;;;;;;;9.32;2.15;;;15.20;53.80;;;;;;5034014;28;20040;-68
2023/06/02 03:07:49;;;;;;;7.20;2.30;;;15.20;53.80;;;;;;5037362;28;20120;-68
2023/06/02 03:10:17;;;;;;;8.27;2.50;;;15.10;53.80;;;;;;5034089;28;20033;-68
2023/06/02 03:12:46;;;;;;;7.55;2.20;;;15.10;53.80;;;;;;5036419;28;20475;-68
2023/06/02 03:15:11;;;;;;;9.25;2.28;;;15.10;54.00;;;;;;5033352;28;20131;-68
2023/06/02 03:17:37;;;;;;;6.70;2.20;;;15.10;54.00;;;;;;5035810;28;20358;-68
2023/06/02 03:20:08;;;;;;;6.40;2.40;;;15.10;54.00;;;;;;5016881;28;20021;-68
2023/06/02 03:22:35;;;;;;;6.93;2.20;;;15.10;54.10;;;;;;5025946;28;20426;-68
2023/06/02 03:25:00;;;;;;;11.52;2.25;;;15.10;54.10;;;;;;5031434;28;20033;-68
2023/06/02 03:27:27;;;;;;;7.38;2.10;;;15.10;54.30;;;;;;5034346;28;20349;-68
2023/06/02 03:29:55;;;;;;;7.25;2.25;;;15.10;54.30;;;;;;5034050;28;20186;-68
2023/06/02 03:32:24;;;;;;;8.05;2.05;;;15.10;54.30;;;;;;5032327;28;20120;-68
2023/06/02 03:34:50;;;;;;;11.50;2.28;;;15.10;54.20;;;;;;5031365;28;20175;-68
2023/06/02 03:37:17;;;;;;;7.32;2.30;;;15.10;54.20;;;;;;5031998;28;20108;-68
2023/06/02 03:39:45;;;;;;;8.82;2.00;;;15.10;54.20;;;;;;5031667;28;20447;-68
2023/06/02 03:42:10;;;;;;;6.53;1.85;;;15.10;54.20;;;;;;5032177;28;20119;-68
2023/06/02 03:44:36;;;;;;;7.18;2.40;;;15.00;54.10;;;;;;5016260;28;20052;-68
2023/06/02 03:47:02;;;;;;;8.48;2.67;;;15.10;54.10;;;;;;5031142;28;20107;-68
2023/06/02 03:49:29;;;;;;;9.73;2.10;;;15.00;54.10;;;;;;5032323;28;20021;-68
2023/06/02 03:51:57;;;;;;;8.57;2.88;;;15.00;54.20;;;;;;5032643;28;20051;-67
2023/06/02 03:54:25;;;;;;;10.15;2.60;;;15.00;54.20;;;;;;5032948;28;20035;-68
2023/06/02 03:56:52;;;;;;;9.05;2.08;;;15.00;54.30;;;;;;5026683;28;20049;-68
2023/06/02 03:59:18;;;;;;;8.68;2.08;;;15.00;54.30;;;;;;5032713;28;20427;-68
2023/06/02 04:01:44;;;;;;;6.75;2.20;;;15.00;54.20;;;;;;5031246;28;20474;-68
2023/06/02 04:04:11;;;;;;;8.15;2.20;;;15.00;54.10;;;;;;5034605;28;20436;-68
2023/06/02 04:06:44;;;;;;;8.13;2.45;;;15.10;54.20;;;;;;5027049;28;20422;-68
2023/06/02 04:09:13;;;;;;;10.05;2.55;;;15.00;54.10;;;;;;5030640;28;20030;-68
2023/06/02 04:11:40;;;;;;;7.60;2.10;;;15.00;54.20;;;;;;5027132;28;20350;-68
2023/06/02 04:14:07;;;;;;;8.63;2.53;;;15.00;54.30;;;;;;5014536;28;20021;-68
2023/06/02 04:16:33;;;;;;;7.53;2.15;;;15.00;54.30;;;;;;5031033;28;20017;-68
2023/06/02 04:18:59;;;;;;;8.13;2.33;;;15.00;54.30;;;;;;5032748;28;20045;-68
2023/06/02 04:21:26;;;;;;;7.63;2.28;;;15.00;54.30;;;;;;5040720;28;20025;-68
2023/06/02 04:23:52;;;;;;;8.23;2.55;;;15.00;54.40;;;;;;5033728;28;20032;-68
2023/06/02 04:26:18;;;;;;;9.13;2.30;;;15.00;54.30;;;;;;5030705;28;20801;-68
2023/06/02 04:28:44;;;;;;;9.88;3.10;;;14.90;54.40;;;;;;5029041;28;20077;-68
2023/06/02 04:31:11;;;;;;;9.13;2.30;;;14.90;54.50;;;;;;5013402;28;20049;-70
2023/06/02 04:33:41;;;;;;;8.57;2.63;;;14.90;54.50;;;;;;5032671;28;20064;-68
2023/06/02 04:36:10;;;;;;;8.45;2.22;;;14.90;54.50;;;;;;5029217;28;20035;-68
2023/06/02 04:38:37;;;;;;;11.32;2.95;;;14.90;54.60;;;;;;5040420;28;20021;-68
2023/06/02 04:41:06;;;;;;;11.82;2.72;;;14.80;54.60;;;;;;5028452;28;20307;-68
2023/06/02 04:43:34;;;;;;;9.82;2.65;;;14.80;54.80;;;;;;5030943;28;20113;-68
2023/06/02 04:46:01;;;;;;;6.35;2.20;;;14.80;54.90;;;;;;5026059;28;20350;-67
2023/06/02 04:48:27;;;;;;;6.50;1.95;;;14.90;55.00;;;;;;5011921;28;20405;-68
2023/06/02 04:50:54;;;;;;;8.13;1.95;;;14.90;55.10;;;;;;5031709;28;20040;-68
2023/06/02 04:53:20;;;;;;;10.65;2.72;;;14.90;55.10;;;;;;5030932;28;20021;-67
2023/06/02 04:55:47;;;;;;;8.27;2.70;;;14.90;55.10;;;;;;5030187;28;20025;-68
2023/06/02 04:58:14;;;;;;;10.02;2.78;;;14.90;55.10;;;;;;5023913;28;20029;-67
2023/06/02 05:00:40;;;;;;;8.20;2.28;;;15.00;55.10;;;;;;5030964;28;20024;-67
2023/06/02 05:03:07;;;;;;;8.60;1.95;;;15.00;54.90;;;;;;5037638;28;20416;-67
2023/06/02 05:05:33;;;;;;;10.00;2.13;;;15.00;54.90;;;;;;5039351;28;20056;-68
2023/06/02 05:07:59;;;;;;;8.63;2.28;;;15.00;54.70;;;;;;5033309;28;20049;-67
2023/06/02 05:10:25;;;;;;;8.27;2.15;;;15.00;54.60;;;;;;5007656;28;20036;-69
2023/06/02 05:12:53;;;;;;;8.57;2.78;;;15.00;54.60;;;;;;5021256;28;20030;-69
2023/06/02 05:15:19;;;;;;;9.15;2.50;;;15.00;54.60;;;;;;5014055;28;20420;-69
2023/06/02 05:17:46;;;;;;;9.32;2.55;;;15.00;54.60;;;;;;5015783;28;20018;-69
2023/06/02 05:20:13;;;;;;;8.00;2.08;;;15.00;54.60;;;;;;5029477;28;20025;-69
2023/06/02 05:22:39;;;;;;;7.68;2.13;;;15.00;54.60;;;;;;5032102;28;20060;-69
2023/06/02 05:25:07;;;;;;;7.30;2.25;;;15.10;54.70;;;;;;5032578;28;20051;-69
2023/06/02 05:27:33;;;;;;;7.53;2.30;;;15.10;54.70;;;;;;5032045;28;20112;-69
2023/06/02 05:29:59;;;;;;;8.23;2.28;;;15.10;54.70;;;;;;5031500;28;20175;-69
2023/06/02 05:32:25;;;;;;;8.77;2.50;;;15.10;54.70;;;;;;5031634;28;20045;-69
2023/06/02 05:34:51;;;;;;;12.20;2.67;;;15.10;54.60;;;;;;5029663;28;20029;-69
2023/06/02 05:37:18;;;;;;;7.32;2.03;;;15.10;54.50;;;;;;5031805;28;20029;-69
2023/06/02 05:39:45;;;;;;;8.52;2.70;;;15.20;54.50;;;;;;5036125;28;20107;-69
2023/06/02 05:42:14;;;;;;;6.90;2.10;;;15.20;54.50;;;;;;5020334;28;20032;-69
2023/06/02 05:44:40;;;;;;;7.38;2.22;;;15.20;55.00;;;;;;5038614;28;20021;-69
2023/06/02 05:47:06;;;;;;;5.43;1.95;;;15.20;54.20;;;;;;5053489;28;20100;-69
2023/06/02 05:49:32;;;;;;;9.65;2.63;;;15.20;54.20;;;;;;5027969;28;20022;-69
2023/06/02 05:51:58;;;;;;;8.98;2.35;;;15.20;54.00;;;;;;5042690;28;20052;-69
2023/06/02 05:54:24;;;;;;;9.05;2.42;;;15.30;54.10;;;;;;5039477;28;20056;-68
2023/06/02 05:56:50;;;;;;;10.10;2.45;;;15.30;54.00;;;;;;5038029;28;20064;-69
2023/06/02 05:59:16;;;;;;;7.90;2.10;;;15.40;54.00;;;;;;5040760;28;20103;-69
2023/06/02 06:01:43;;;;;;;8.70;1.92;;;15.40;53.90;;;;;;5035433;28;20022;-69
2023/06/02 06:04:08;;;;;;;8.40;2.10;;;15.40;53.70;;;;;;5035001;28;20083;-69
2023/06/02 06:06:36;;;;;;;6.35;2.20;;;15.50;53.80;;;;;;5056777;28;20052;-69
2023/06/02 06:09:02;;;;;;;8.30;2.10;;;15.50;53.80;;;;;;5036592;28;20487;-68
2023/06/02 06:11:28;;;;;;;8.43;1.80;;;15.50;53.80;;;;;;5040179;28;20022;-69
2023/06/02 06:13:54;;;;;;;8.43;2.50;;;15.60;53.80;;;;;;5021469;28;20035;-69
2023/06/02 06:16:20;;;;;;;10.07;2.33;;;15.60;53.80;;;;;;5039004;28;20456;-68
2023/06/02 06:18:46;;;;;;;11.52;2.17;;;15.60;53.80;;;;;;5034718;28;20022;-69
2023/06/02 06:21:12;;;;;;;7.15;1.95;;;15.60;53.80;;;;;;5048716;28;20025;-69
2023/06/02 06:23:38;;;;;;;7.57;2.08;;;15.60;53.80;;;;;;5017494;28;20026;-67
2023/06/02 06:26:04;;;;;;;12.32;2.58;;;15.60;53.70;;;;;;5043679;28;20523;-68
2023/06/02 06:28:30;;;;;;;8.63;2.25;;;15.70;53.60;;;;;;5024265;28;20116;-67
2023/06/02 06:30:58;;;;;;;11.07;2.22;;;15.70;53.60;;;;;;5028603;28;20053;-69
2023/06/02 06:33:24;;;;;;;8.38;2.13;;;15.70;53.60;;;;;;5028419;28;20029;-71
2023/06/02 06:35:50;;;;;;;8.77;2.15;;;15.70;53.60;;;;;;5036635;28;20025;-70
2023/06/02 06:38:16;;;;;;;8.90;2.25;;;15.70;53.60;;;;;;5016367;28;20124;-74
2023/06/02 06:40:42;;;;;;;6.82;2.22;;;15.70;53.50;;;;;;5013573;28;20037;-68
2023/06/02 06:43:08;;;;;;;9.95;2.20;;;15.70;53.50;;;;;;5028267;28;20088;-67
2023/06/02 06:45:42;;;;;;;8.02;2.20;;;15.70;53.40;;;;;;5030650;28;20037;-67
2023/06/02 06:48:09;;;;;;;8.60;2.30;;;15.70;53.40;;;;;;5024860;28;20492;-67
2023/06/02 06:50:35;;;;;;;11.13;2.42;;;15.80;53.50;;;;;;5047755;28;20083;-66
2023/06/02 06:53:03;;;;;;;10.27;2.15;;;15.80;53.60;;;;;;5031518;28;20044;-66
2023/06/02 06:55:29;;;;;;;9.10;2.58;;;15.80;53.60;;;;;;5030270;28;20071;-66
2023/06/02 06:57:56;;;;;;;7.35;2.10;;;15.80;53.50;;;;;;5038210;28;20045;-66
2023/06/02 07:00:22;;;;;;;7.03;2.28;;;15.70;53.50;;;;;;5040158;28;20025;-66
2023/06/02 07:02:48;;;;;;;7.78;1.77;;;15.80;54.30;;;;;;5042393;28;20033;-67
2023/06/02 07:05:17;;;;;;;11.00;2.17;;;15.80;53.70;;;;;;5039645;28;20064;-67
2023/06/02 07:07:44;;;;;;;9.60;2.25;;;15.80;53.90;;;;;;5050282;28;20053;-67
2023/06/02 07:10:10;;;;;;;9.30;2.20;;;15.80;53.90;;;;;;5041699;28;20059;-69
2023/06/02 07:12:36;;;;;;;7.70;1.98;;;15.80;54.00;;;;;;5042225;28;20037;-68
2023/06/02 07:15:03;;;;;;;10.02;2.63;;;15.90;54.20;;;;;;5036923;28;20026;-67
2023/06/02 07:17:29;;;;;;;8.93;2.33;;;15.90;54.10;;;;;;5035752;28;20529;-67
2023/06/02 07:19:55;;;;;;;11.13;2.35;;;15.90;54.20;;;;;;5034473;28;20029;-67
2023/06/02 07:22:21;;;;;;;6.93;2.30;;;16.00;54.10;;;;;;5023297;28;20347;-64
2023/06/02 07:24:47;;;;;;;9.20;2.10;;;16.00;54.10;;;;;;5030223;28;20161;-64
2023/06/02 07:27:13;;;;;;;8.25;2.17;;;16.00;54.20;;;;;;5031851;28;20017;-64
2023/06/02 07:29:39;;;;;;;7.65;2.03;;;16.00;54.30;;;;;;5025250;28;20107;-64
2023/06/02 07:32:06;;;;;;;10.68;2.53;;;16.10;54.40;;;;;;5035898;28;20033;-65
2023/06/02 07:34:32;;;;;;;7.70;2.35;;;16.10;54.50;;;;;;5025447;28;20053;-64
2023/06/02 07:37:00;;;;;;;10.90;2.13;;;16.10;54.50;;;;;;5047801;28;20409;-73
2023/06/02 07:39:26;;;;;;;7.72;2.20;;;16.20;54.40;;;;;;5033924;28;20036;-65
2023/06/02 07:41:52;;;;;;;10.48;2.60;;;16.10;54.30;;;;;;5033286;28;20116;-65
2023/06/02 07:44:18;;;;;;;7.80;2.00;;;16.10;54.40;;;;;;5036689;28;20112;-66
2023/06/02 07:46:45;;;;;;;8.57;2.28;;;16.10;54.50;;;;;;5012794;28;20036;-66
2023/06/02 07:49:12;;;;;;;9.80;2.78;;;16.10;54.70;;;;;;5027704;28;20162;-66
2023/06/02 07:51:39;;;;;;;7.95;2.17;;;16.10;54.70;;;;;;5054991;28;20032;-65
2023/06/02 07:54:05;;;;;;;9.18;2.30;;;16.00;54.70;;;;;;5032577;28;20453;-66
2023/06/02 07:56:31;;;;;;;7.30;1.80;;;16.10;54.80;;;;;;5034696;28;20029;-65
2023/06/02 07:58:57;;;;;;;9.25;2.35;;;16.10;54.70;;;;;;5048163;28;20041;-65
2023/06/02 08:01:23;;;;;;;8.57;2.20;;;16.20;54.70;;;;;;5055344;28;20032;-65
2023/06/02 08:03:49;;;;;;;8.02;2.47;;;16.20;54.80;;;;;;5054046;28;20029;-65
2023/06/02 08:06:15;;;;;;;10.25;3.00;;;16.20;54.80;;;;;;5036106;28;20060;-70
2023/06/02 08:08:41;;;;;;;9.27;2.30;;;16.20;54.90;;;;;;5033754;28;20472;-71
2023/06/02 08:11:07;;;;;;;13.95;2.92;;;16.30;54.90;;;;;;5033801;28;20037;-70
2023/06/02 08:13:32;;;;;;;8.32;2.25;;;16.30;54.90;;;;;;5040766;28;20037;-72
2023/06/02 08:15:59;;;;;;;13.93;2.60;;;16.40;54.90;;;;;;5040313;28;20124;-69
2023/06/02 08:18:25;;;;;;;9.15;2.05;;;16.40;54.90;;;;;;5033899;28;20443;-67
2023/06/02 08:20:51;;;;;;;9.63;2.20;;;16.40;54.90;;;;;;5039782;28;20038;-67
2023/06/02 08:23:17;;;;;;;9.73;2.47;;;16.40;54.90;;;;;;5034627;28;20087;-67
2023/06/02 08:25:46;;;;;;;8.88;2.55;;;16.50;55.10;;;;;;5032298;28;20128;-67
2023/06/02 08:28:13;;;;;;;7.75;2.13;;;16.50;55.10;;;;;;5033690;28;20039;-67
2023/06/02 08:30:42;;;;;;;8.20;2.10;;;16.50;55.10;;;;;;5034574;28;20026;-68
2023/06/02 08:33:08;;;;;;;10.60;2.53;;;16.60;55.20;;;;;;5033608;28;20087;-67
2023/06/02 08:35:37;;;;;;;10.63;2.42;;;16.60;55.20;;;;;;5027987;28;20021;-68
2023/06/02 08:38:06;;;;;;;6.72;1.95;;;16.70;55.20;;;;;;5029095;28;20038;-67
2023/06/02 08:40:37;;;;;;;10.82;2.45;;;16.70;55.20;;;;;;5021471;28;20032;-68
2023/06/02 08:43:04;;;;;;;8.07;1.83;;;16.80;55.10;;;;;;5024340;28;20044;-69
2023/06/02 08:45:30;;;;;;;8.15;2.20;;;16.80;55.10;;;;;;5028687;28;20033;-70
2023/06/02 08:47:57;;;;;;;6.05;2.20;;;16.90;55.10;;;;;;5031934;28;20048;-69
2023/06/02 08:50:28;;;;;;;9.77;2.20;;;16.90;55.00;;;;;;5014898;28;20430;-69
2023/06/02 08:52:55;;;;;;;6.40;2.10;;;17.00;55.10;;;;;;5021501;28;20080;-69
2023/06/02 08:55:24;;;;;;;7.70;2.65;;;17.10;55.00;;;;;;5028180;28;20300;-69
2023/06/02 08:57:51;;;;;;;7.43;1.73;;;17.10;54.80;;;;;;5028745;28;20484;-67
2023/06/02 09:00:18;;;;;;;8.88;2.28;;;17.20;54.80;;;;;;5031508;28;20029;-69
2023/06/02 09:02:49;;;;;;;8.02;2.35;;;17.20;54.60;;;;;;5031966;28;20029;-70
2023/06/02 09:05:18;;;;;;;11.70;2.40;;;17.20;54.70;;;;;;5032940;28;20040;-69
2023/06/02 09:07:45;;;;;;;9.75;2.58;;;17.30;54.90;;;;;;5021892;28;20040;-68
2023/06/02 09:10:30;;;;;;;8.57;2.35;;;17.30;54.80;;;;;;5016468;28;20116;-68
2023/06/02 09:12:56;;;;;;;8.63;2.45;;;17.40;54.70;;;;;;5032438;28;20034;-67
2023/06/02 09:15:24;;;;;;;10.90;2.90;;;17.40;54.60;;;;;;5029703;28;20021;-67
2023/06/02 09:17:50;;;;;;;8.23;3.00;;;17.50;54.50;;;;;;5013995;28;20029;-69
2023/06/02 09:20:15;;;;;;;9.65;2.67;;;17.50;54.40;;;;;;5032126;28;20104;-69
2023/06/02 09:22:58;;;;;;;9.10;2.92;;;17.50;54.40;;;;;;5032528;28;20182;-68
2023/06/02 09:25:27;;;;;;;9.98;2.72;;;17.50;54.20;;;;;;5033636;28;20038;-69
2023/06/02 09:27:55;;;;;;;6.32;2.28;;;17.50;54.20;;;;;;5015369;28;20094;-68
2023/06/02 09:30:21;;;;;;;9.02;2.83;;;17.50;54.20;;;;;;5033008;28;20121;-67
2023/06/02 09:32:58;;;;;;;9.90;2.60;;;17.60;54.30;;;;;;5027496;28;20038;-68
2023/06/02 09:35:37;;;;;;;8.25;2.70;;;17.60;54.20;;;;;;5010284;28;20022;-69
2023/06/02 09:38:07;;;;;;;8.70;2.55;;;17.60;54.10;;;;;;5030203;28;20413;-69
2023/06/02 09:40:35;;;;;;;8.07;2.72;;;17.70;54.20;;;;;;5031077;28;20029;-69
2023/06/02 09:43:03;;;;;;;6.35;2.40;;;17.80;54.20;;;;;;5031931;28;20075;-67
2023/06/02 09:45:29;;;;;;;10.25;3.00;;;17.80;54.20;;;;;;5051764;28;20032;-67
2023/06/02 09:47:55;;;;;;;7.68;2.47;;;17.90;54.20;;;;;;5037828;28;20041;-67
2023/06/02 09:50:35;;;;;;;11.50;2.97;;;17.90;54.10;;;;;;5035834;28;20025;-68
2023/06/02 09:53:14;;;;;;;7.70;2.88;;;17.90;53.80;;;;;;5025709;28;20060;-68
2023/06/02 09:55:40;;;;;;;8.57;2.83;;;17.90;53.80;;;;;;5054702;28;20029;-68
2023/06/02 09:58:07;;;;;;;10.55;3.00;;;18.00;53.80;;;;;;5041203;28;20052;-67
2023/06/02 10:00:35;;;;;;;9.07;2.70;;;18.00;53.80;;;;;;5033128;28;20033;-68
2023/06/02 10:03:02;;;;;;;9.05;2.85;;;18.10;53.80;;;;;;5033437;28;20025;-67
2023/06/02 10:05:29;;;;;;;11.93;3.15;;;18.20;53.90;;;;;;5037181;28;20045;-67
2023/06/02 10:08:18;;;;;;;7.60;2.70;;;18.20;53.70;;;;;;5032650;28;20373;-66
2023/06/02 10:11:02;;;;;;;10.75;2.70;;;18.20;53.60;;;;;;5035875;28;20446;-67
2023/06/02 10:13:56;;;;;;;10.50;2.90;;;18.30;53.60;;;;;;5030525;28;20363;-67
2023/06/02 10:16:56;;;;;;;11.30;3.30;;;18.30;53.50;;;;;;5025745;28;20048;-66
2023/06/02 10:19:45;;;;;;;9.68;3.05;;;18.30;53.30;;;;;;5024818;28;20034;-66
2023/06/02 10:22:58;;;;;;;10.77;2.95;;;18.40;53.40;;;;;;5020084;28;20040;-67
2023/06/02 10:25:33;;;;;;;8.35;3.03;;;18.40;53.30;;;;;;5025646;28;20046;-66
2023/06/02 10:28:02;;;;;;;8.98;2.45;;;18.40;53.40;;;;;;5024608;28;20031;-65
2023/06/02 10:30:28;;;;;;;8.48;2.78;;;18.40;53.50;;;;;;5019004;28;20029;-66
2023/06/02 10:32:55;;;;;;;8.90;3.15;;;18.50;53.40;;;;;;5026156;28;20381;-66
2023/06/02 10:35:21;;;;;;;10.55;3.30;;;18.50;53.40;;;;;;5009979;28;20113;-65
2023/06/02 10:38:07;;;;;;;11.00;2.97;;;18.50;53.40;;;;;;5028357;28;20037;-66
2023/06/02 10:40:48;;;;;;;8.73;3.17;;;18.60;53.40;;;;;;5007797;28;20033;-66
2023/06/02 10:43:14;;;;;;;;;;;18.70;54.10;;;;;;5025550;28;20033;-67
2023/06/02 10:45:42;;;;;;;10.35;3.30;;;18.70;53.40;;;;;;5028461;28;20008;-67
2023/06/02 10:48:39;;;;;;;9.60;3.25;;;18.70;53.30;;;;;;5028177;28;20029;-67
2023/06/02 10:51:12;;;;;;;7.00;2.60;;;18.70;53.30;;;;;;5028566;28;20037;-66
2023/06/02 10:54:02;;;;;;;9.80;3.30;;;18.70;53.50;;;;;;5029058;28;20041;-67
2023/06/02 10:56:42;;;;;;;8.73;2.50;;;18.70;53.60;;;;;;5025128;28;20057;-66
2023/06/02 10:59:09;;;;;;;11.57;3.15;;;18.70;53.40;;;;;;5012024;28;20040;-66
2023/06/02 11:01:49;;;;;;;9.70;3.28;;;18.80;53.30;;;;;;5009126;28;20097;-66
2023/06/02 11:04:31;;;;;;;10.73;3.13;;;19.00;53.00;;;;;;5029017;28;20105;-67
2023/06/02 11:07:18;;;;;;;;;;;19.10;53.00;;;;;;5027350;28;20033;-67
2023/06/02 11:09:45;;;;;;;9.10;3.05;;;19.20;52.80;;;;;;5027555;28;20258;-66
2023/06/02 11:12:11;;;;;;;8.32;2.92;;;19.30;52.80;;;;;;5025703;28;20150;-67
2023/06/02 11:14:58;;;;;;;10.10;3.20;;;19.20;52.90;;;;;;5029314;28;20044;-66
2023/06/02 11:17:30;;;;;;;11.75;2.70;;;19.20;52.60;;;;;;5028957;28;21482;-66
2023/06/02 11:19:57;;;;;;;9.23;2.88;;;19.20;52.70;;;;;;5010673;28;20025;-66
2023/06/02 11:22:23;;;;;;;8.82;3.15;;;19.30;52.60;;;;;;5027012;28;20470;-66
2023/06/02 11:24:52;;;;;;;8.73;3.13;;;19.40;52.60;;;;;;5029489;28;20139;-66
2023/06/02 11:27:19;;;;;;;12.52;2.70;;;19.50;52.60;;;;;;5028516;28;20060;-66
2023/06/02 11:29:45;;;;;;;11.35;3.42;;;19.50;53.10;;;;;;5027404;28;20095;-66
2023/06/02 11:32:13;;;;;;;8.55;2.83;;;19.50;52.40;;;;;;5027662;28;20067;-66
2023/06/02 11:34:40;;;;;;;10.55;2.90;;;19.60;52.50;;;;;;5027038;28;20130;-66
2023/06/02 11:37:20;;;;;;;9.88;3.42;;;19.80;52.50;;;;;;5028201;28;20029;-67
2023/06/02 11:39:56;;;;;;;7.60;2.80;;;20.20;51.90;;;;;;5026883;28;20438;-66
2023/06/02 11:42:40;;;;;;;10.75;3.25;;;20.40;51.50;;;;;;5028351;28;20524;-70
2023/06/02 11:45:17;;;;;;;7.57;2.75;;;20.40;51.40;;;;;;5025587;28;20625;-67
2023/06/02 11:47:43;;;;;;;8.25;2.90;;;20.30;51.50;;;;;;5028923;28;20451;-65
2023/06/02 11:50:14;;;;;;;11.20;3.70;;;20.20;51.70;;;;;;5025519;28;20029;-66
2023/06/02 11:52:39;;;;;;;11.07;3.38;;;20.20;51.90;;;;;;5030604;28;21181;-66
2023/06/02 11:55:06;;;;;;;8.05;2.88;;;20.20;51.90;;;;;;5028157;28;20026;-65
2023/06/02 11:57:33;;;;;;;10.63;3.60;;;20.20;51.80;;;;;;5033788;28;20049;-66
2023/06/02 12:00:09;;;;;;;14.50;4.13;;;20.20;51.80;;;;;;5021180;28;20339;-66
2023/06/02 12:02:39;;;;;;;8.82;3.63;;;20.20;52.00;;;;;;5040981;28;20051;-65
2023/06/02 12:05:29;;;;;;;9.02;3.45;;;20.20;51.80;;;;;;5055707;28;20323;-66
2023/06/02 12:07:56;;;;;;;11.48;3.67;;;20.20;51.90;;;;;;5047963;28;20045;-65
2023/06/02 12:10:29;;;;;;;10.30;2.97;;;20.20;51.70;;;;;;5039210;28;20026;-66
2023/06/02 12:12:56;;;;;;;9.32;3.05;;;20.30;51.60;;;;;;5053876;28;20362;-67
2023/06/02 12:15:22;;;;;;;9.30;3.30;;;20.50;51.60;;;;;;5054114;28;20028;-66
2023/06/02 12:17:48;;;;;;;7.82;3.00;;;20.60;51.30;;;;;;5054212;28;20025;-67
2023/06/02 12:20:14;;;;;;;12.43;3.50;;;20.60;51.80;;;;;;5037664;28;20033;-66
2023/06/02 12:22:53;;;;;;;9.75;3.28;;;20.50;51.30;;;;;;5032752;28;20030;-66
2023/06/02 12:25:20;;;;;;;10.10;3.35;;;20.50;51.30;;;;;;5013839;28;20345;-66
2023/06/02 12:27:46;;;;;;;8.63;3.35;;;20.50;51.50;;;;;;5019329;28;20037;-66
2023/06/02 12:30:16;;;;;;;11.50;3.53;;;20.50;51.50;;;;;;5013834;28;20326;-66
2023/06/02 12:32:42;;;;;;;8.10;2.88;;;20.50;51.40;;;;;;5033921;28;20362;-66
2023/06/02 12:35:08;;;;;;;8.75;3.15;;;20.50;51.60;;;;;;5031447;28;20041;-66
2023/06/02 12:37:34;;;;;;;10.48;3.35;;;20.50;51.60;;;;;;5032239;28;20033;-66
2023/06/02 12:40:00;;;;;;;8.60;2.95;;;20.40;51.80;;;;;;5028797;28;20026;-67
2023/06/02 12:42:25;;;;;;;10.18;2.90;;;20.40;51.90;;;;;;5007564;28;20117;-65
2023/06/02 12:44:52;;;;;;;7.13;2.97;;;20.40;51.90;;;;;;5041245;28;20029;-67
2023/06/02 12:47:18;;;;;;;10.18;3.53;;;20.40;51.80;;;;;;5034598;28;20033;-67
2023/06/02 12:49:47;;;;;;;8.98;3.25;;;20.40;51.70;;;;;;5042106;28;20065;-67
2023/06/02 12:52:14;;;;;;;8.57;3.50;;;20.40;51.70;;;;;;5023529;28;20021;-67